ADDS TAF Data INFO
IDs: Format: Raw Decoded Include METARs

Data at: 0436 UTC 21 Jan 2018

KGUY 210353Z AUTO 21013KT 10SM CLR 11/M08 A2966 RMK AO2 SLP026 T01111083

KGUY 202323Z 2100/2124 19015KT P6SM SCT300
  FM211600 22020G30KT P6SM SCT100
  FM212100 28030G40KT P6SM OVC100